createdAt,value
2019-01-25T00:01:02.556Z,71.60
2019-01-25T00:03:31.358Z,73.13
2019-01-25T00:06:00.270Z,81.50
2019-01-25T00:08:29.880Z,72.93
2019-01-25T00:10:58.746Z,68.83
2019-01-25T00:13:27.527Z,68.37
2019-01-25T00:15:56.338Z,75.20
2019-01-25T00:18:25.123Z,71.83
2019-01-25T00:20:54.034Z,75.33
2019-01-25T00:23:22.838Z,72.43
2019-01-25T00:25:51.658Z,77.43
2019-01-25T00:28:20.978Z,77.50
2019-01-25T00:30:49.756Z,72.70
2019-01-25T00:33:19.106Z,72.30
2019-01-25T00:35:47.894Z,74.63
2019-01-25T00:38:16.772Z,78.67
2019-01-25T00:40:46.030Z,76.23
2019-01-25T00:43:50.015Z,72.70
2019-01-25T00:46:18.852Z,75.90
2019-01-25T00:48:47.903Z,76.43
2019-01-25T00:51:17.052Z,68.07
2019-01-25T00:53:45.855Z,67.43
2019-01-25T00:56:14.784Z,72.23
2019-01-25T00:58:43.753Z,72.73
2019-01-25T01:01:12.570Z,75.80
2019-01-25T01:03:41.557Z,73.90
2019-01-25T01:06:10.655Z,79.17
2019-01-25T01:08:39.466Z,72.60
2019-01-25T01:11:08.370Z,80.67
2019-01-25T01:13:37.316Z,72.00
2019-01-25T01:16:06.126Z,74.40
2019-01-25T01:18:34.873Z,72.57
2019-01-25T01:21:03.766Z,75.13
2019-01-25T01:23:32.600Z,72.90
2019-01-25T01:26:01.358Z,74.03
2019-01-25T01:28:30.314Z,75.00
2019-01-25T01:30:59.120Z,72.83
2019-01-25T01:33:27.998Z,72.83
2019-01-25T01:35:56.766Z,72.87
2019-01-25T01:38:25.638Z,72.40
2019-01-25T01:40:54.624Z,72.60
2019-01-25T01:43:23.671Z,75.97
2019-01-25T01:45:52.429Z,77.97
2019-01-25T01:48:21.448Z,77.40
2019-01-25T01:50:50.270Z,72.50
2019-01-25T01:53:19.069Z,69.10
2019-01-25T01:55:47.814Z,71.20
2019-01-25T01:58:16.741Z,70.43
2019-01-25T02:00:45.878Z,74.83
2019-01-25T02:03:14.758Z,68.10
2019-01-25T02:05:43.608Z,74.90
2019-01-25T02:08:12.346Z,71.87
2019-01-25T02:10:41.168Z,76.07
2019-01-25T02:13:09.972Z,70.23
2019-01-25T02:15:38.708Z,74.87
2019-01-25T02:18:07.742Z,70.90
2019-01-25T02:20:36.505Z,75.57
2019-01-25T02:23:05.341Z,74.50
2019-01-25T02:25:34.179Z,73.00
2019-01-25T02:28:02.953Z,72.30
2019-01-25T02:30:31.854Z,72.13
2019-01-25T02:33:01.357Z,76.57
2019-01-25T02:35:30.244Z,71.10
2019-01-25T02:37:58.997Z,73.33
2019-01-25T02:40:27.786Z,73.60
2019-01-25T02:42:56.567Z,73.03
2019-01-25T02:45:25.347Z,73.90
2019-01-25T02:47:54.072Z,84.27
2019-01-25T02:50:23.005Z,79.20
2019-01-25T02:52:51.854Z,72.67
2019-01-25T02:55:20.653Z,79.80
2019-01-25T02:57:49.566Z,77.63
2019-01-25T03:00:20.198Z,80.53
2019-01-25T03:02:49.206Z,77.20
2019-01-25T03:05:20.912Z,80.35
2019-01-25T03:07:50.078Z,80.33
2019-01-25T03:10:19.185Z,78.03
2019-01-25T03:12:48.048Z,70.40
2019-01-25T03:15:17.984Z,84.23
2019-01-25T03:17:46.781Z,82.23
2019-01-25T03:20:15.907Z,79.20
2019-01-25T03:22:44.818Z,72.30
2019-01-25T03:25:14.947Z,76.73
2019-01-25T03:27:43.759Z,83.73
2019-01-25T03:30:13.545Z,76.53
2019-01-25T03:32:44.364Z,81.70
2019-01-25T03:35:14.123Z,76.03
2019-01-25T03:37:43.262Z,87.13
2019-01-25T03:40:14.638Z,76.13
2019-01-25T03:42:43.414Z,75.97
2019-01-25T03:45:12.852Z,85.83
2019-01-25T03:47:41.694Z,83.47
2019-01-25T03:50:11.547Z,85.63
2019-01-25T03:52:40.342Z,77.70
2019-01-25T03:55:09.817Z,80.17
2019-01-25T03:57:38.625Z,74.27
2019-01-25T04:00:09.379Z,80.33
2019-01-25T04:02:38.182Z,75.20
2019-01-25T04:05:07.690Z,76.13
2019-01-25T04:07:36.476Z,74.43
2019-01-25T04:10:07.119Z,77.67
2019-01-25T04:12:35.918Z,85.43
2019-01-25T04:15:05.720Z,84.27
2019-01-25T04:17:34.724Z,84.33
2019-01-25T04:20:03.578Z,93.07
2019-01-25T04:22:32.329Z,99.20
2019-01-25T04:25:01.179Z,95.90
2019-01-25T04:27:30.266Z,85.87
2019-01-25T04:29:59.096Z,88.30
2019-01-25T04:32:27.965Z,90.70
2019-01-25T04:34:56.882Z,85.07
2019-01-25T04:37:25.955Z,87.03
2019-01-25T04:39:54.726Z,86.77
2019-01-25T04:42:23.479Z,90.03
2019-01-25T04:44:52.283Z,92.90
2019-01-25T04:47:26.587Z,89.53
2019-01-25T04:49:55.651Z,95.17
2019-01-25T04:52:24.427Z,92.53
2019-01-25T04:54:54.028Z,96.03
2019-01-25T04:57:22.786Z,97.87
2019-01-25T04:59:52.999Z,93.63
2019-01-25T05:02:21.789Z,93.80
2019-01-25T05:04:51.298Z,92.67
2019-01-25T05:07:20.831Z,95.47
2019-01-25T05:09:49.870Z,92.37
2019-01-25T05:12:18.656Z,97.40
2019-01-25T05:14:47.501Z,93.70
2019-01-25T05:17:16.336Z,97.37
2019-01-25T05:19:45.096Z,92.10
2019-01-25T05:22:13.975Z,93.07
2019-01-25T05:24:42.702Z,88.37
2019-01-25T05:27:11.993Z,98.33
2019-01-25T05:29:48.417Z,94.93
2019-01-25T05:32:17.268Z,90.70
2019-01-25T05:34:46.084Z,95.87
2019-01-25T05:37:14.915Z,96.63
2019-01-25T05:39:43.808Z,95.23
2019-01-25T05:42:12.639Z,89.97
2019-01-25T05:44:41.558Z,87.23
2019-01-25T05:47:11.226Z,96.20
2019-01-25T05:49:40.094Z,87.70
2019-01-25T05:52:13.161Z,86.73
2019-01-25T05:54:42.030Z,94.00
2019-01-25T05:57:10.956Z,87.77
2019-01-25T05:59:40.020Z,91.27
2019-01-25T06:02:08.831Z,90.50
2019-01-25T06:04:40.397Z,85.73
2019-01-25T06:07:09.258Z,85.93
2019-01-25T06:09:38.406Z,88.20
2019-01-25T06:12:10.047Z,82.57
2019-01-25T06:14:38.827Z,80.37
2019-01-25T06:17:07.792Z,74.50
2019-01-25T06:19:37.305Z,74.93
2019-01-25T06:22:06.106Z,79.00
2019-01-25T06:24:34.970Z,71.27
2019-01-25T06:27:03.849Z,73.07
2019-01-25T06:29:33.507Z,69.70
2019-01-25T06:32:02.610Z,72.63
2019-01-25T06:34:31.477Z,65.50
2019-01-25T06:37:00.228Z,64.17
2019-01-25T06:39:29.026Z,70.50
2019-01-25T06:41:57.930Z,67.80
2019-01-25T06:44:26.722Z,66.47
2019-01-25T06:46:55.609Z,63.83
2019-01-25T06:49:24.426Z,65.57
2019-01-25T06:51:53.207Z,63.77
2019-01-25T06:54:22.001Z,63.33
2019-01-25T06:56:50.859Z,54.93
2019-01-25T06:59:36.257Z,62.20
2019-01-25T07:02:15.031Z,62.00
2019-01-25T07:04:43.967Z,66.60
2019-01-25T07:07:32.846Z,65.30
2019-01-25T07:10:01.687Z,62.77
2019-01-25T07:12:30.462Z,152.63
2019-01-25T07:14:59.255Z,85.83
2019-01-25T07:17:28.062Z,54.07
2019-01-25T07:19:57.628Z,61.77
2019-01-25T07:22:27.181Z,58.60
2019-01-25T07:24:57.278Z,60.47
2019-01-25T07:27:26.342Z,55.07
2019-01-25T07:29:55.197Z,54.57
2019-01-25T07:32:23.947Z,55.20
2019-01-25T07:34:52.875Z,51.63
2019-01-25T07:37:21.761Z,55.13
2019-01-25T07:40:12.196Z,56.93
2019-01-25T07:42:45.182Z,59.67
2019-01-25T07:45:14.814Z,53.97
2019-01-25T07:47:43.703Z,51.53
2019-01-25T07:50:12.577Z,55.37
2019-01-25T07:52:41.598Z,50.87
2019-01-25T07:55:10.597Z,56.70
2019-01-25T07:57:39.504Z,54.63
2019-01-25T08:00:10.582Z,54.77
2019-01-25T08:02:39.409Z,54.47
2019-01-25T08:05:08.184Z,58.77
2019-01-25T08:07:37.105Z,55.97
2019-01-25T08:10:06.836Z,59.07
2019-01-25T08:12:35.663Z,57.78
2019-01-25T08:15:05.480Z,50.80
2019-01-25T08:17:34.334Z,52.83
2019-01-25T08:20:03.185Z,45.17
2019-01-25T08:22:32.099Z,44.97
2019-01-25T08:25:01.035Z,49.77
2019-01-25T08:27:30.208Z,50.53
2019-01-25T08:29:59.129Z,44.73
2019-01-25T08:32:28.099Z,47.73
2019-01-25T08:34:57.533Z,52.60
2019-01-25T08:37:26.338Z,47.43
2019-01-25T08:39:55.314Z,43.17
2019-01-25T08:42:24.134Z,48.80
2019-01-25T08:44:52.984Z,44.43
2019-01-25T08:47:22.714Z,44.90
2019-01-25T08:49:57.799Z,45.57
2019-01-25T08:52:22.264Z,41.03
2019-01-25T08:54:51.873Z,45.07
2019-01-25T08:57:20.637Z,41.43
2019-01-25T08:59:49.643Z,43.20
2019-01-25T09:02:18.514Z,46.20
2019-01-25T09:04:47.317Z,39.90
2019-01-25T09:07:16.661Z,40.90
2019-01-25T09:09:45.484Z,46.53
2019-01-25T09:12:14.328Z,44.23
2019-01-25T09:14:43.153Z,39.00
2019-01-25T09:17:11.927Z,42.90
2019-01-25T09:19:40.779Z,46.63
2019-01-25T09:22:09.840Z,40.27
2019-01-25T09:24:38.654Z,40.47
2019-01-25T09:27:07.595Z,36.97
2019-01-25T09:29:36.539Z,38.83
2019-01-25T09:32:05.755Z,41.17
2019-01-25T09:34:34.548Z,40.20
2019-01-25T09:37:03.343Z,46.80
2019-01-25T09:39:32.254Z,44.90
2019-01-25T09:42:01.063Z,45.83
2019-01-25T09:44:29.991Z,44.13
2019-01-25T09:46:58.887Z,46.53
2019-01-25T09:49:27.702Z,44.33
2019-01-25T09:51:56.693Z,46.50
2019-01-25T09:54:26.738Z,42.13
2019-01-25T09:56:55.585Z,40.87
2019-01-25T09:59:24.443Z,42.93
2019-01-25T10:01:53.847Z,46.80
2019-01-25T10:04:22.717Z,47.13
2019-01-25T10:06:51.589Z,50.53
2019-01-25T10:09:20.420Z,46.43
2019-01-25T10:11:49.262Z,50.77
2019-01-25T10:14:18.308Z,43.80
2019-01-25T10:16:49.094Z,46.80
2019-01-25T10:19:17.898Z,45.23
2019-01-25T10:21:46.748Z,43.87
2019-01-25T10:24:15.601Z,38.60
2019-01-25T10:26:44.623Z,49.10
2019-01-25T10:29:13.456Z,47.77
2019-01-25T10:31:42.285Z,48.73
2019-01-25T10:34:11.215Z,45.23
2019-01-25T10:36:40.003Z,48.23
2019-01-25T10:39:09.134Z,45.13
2019-01-25T10:41:37.922Z,47.97
2019-01-25T10:44:07.815Z,55.43
2019-01-25T10:46:36.898Z,55.33
2019-01-25T10:49:05.694Z,47.70
2019-01-25T10:52:13.676Z,52.47
2019-01-25T10:54:42.482Z,51.17
2019-01-25T10:57:11.918Z,53.17
2019-01-25T10:59:40.766Z,54.17
2019-01-25T11:02:09.550Z,55.03
2019-01-25T11:04:38.474Z,51.20
2019-01-25T11:07:07.335Z,50.77
2019-01-25T11:09:38.012Z,57.03
2019-01-25T11:12:06.735Z,50.50
2019-01-25T11:14:35.523Z,48.73
2019-01-25T11:17:04.342Z,53.37
2019-01-25T11:19:33.260Z,55.20
2019-01-25T11:22:02.039Z,55.13
2019-01-25T11:24:30.938Z,64.53
2019-01-25T11:27:00.481Z,53.27
2019-01-25T11:29:30.170Z,55.77
2019-01-25T11:31:59.197Z,54.43
2019-01-25T11:34:27.986Z,61.53
2019-01-25T11:36:56.815Z,54.53
2019-01-25T11:39:25.591Z,60.73
2019-01-25T11:41:54.959Z,72.07
2019-01-25T11:44:23.777Z,57.67
2019-01-25T11:46:52.623Z,53.83
2019-01-25T11:49:21.434Z,64.03
2019-01-25T11:51:50.314Z,56.17
2019-01-25T11:54:19.070Z,61.70
2019-01-25T11:56:48.287Z,61.70
2019-01-25T11:59:17.314Z,64.83
2019-01-25T12:01:46.089Z,62.47
2019-01-25T12:04:15.300Z,60.03
2019-01-25T12:06:44.076Z,70.83
2019-01-25T12:09:12.962Z,66.53
2019-01-25T12:11:43.180Z,75.80
2019-01-25T12:14:12.028Z,77.23
2019-01-25T12:16:40.851Z,74.03
2019-01-25T12:19:09.623Z,79.50
2019-01-25T12:21:38.419Z,71.30
2019-01-25T12:24:07.257Z,74.40
2019-01-25T12:26:36.174Z,86.43
2019-01-25T12:29:06.670Z,74.20
2019-01-25T12:31:35.507Z,76.03
2019-01-25T12:34:04.546Z,85.83
2019-01-25T12:36:33.617Z,83.82
2019-01-25T12:39:02.991Z,89.37
2019-01-25T12:41:31.809Z,93.73
2019-01-25T12:44:00.787Z,97.83
2019-01-25T12:46:32.109Z,95.87
2019-01-25T12:49:01.182Z,86.03
2019-01-25T12:51:38.674Z,93.87
2019-01-25T12:54:07.661Z,87.80
2019-01-25T12:56:37.194Z,103.37
2019-01-25T12:59:06.071Z,98.77
2019-01-25T13:01:35.235Z,119.15
2019-01-25T13:04:04.028Z,102.80
2019-01-25T13:06:32.835Z,110.70
2019-01-25T13:09:01.647Z,116.63
2019-01-25T13:11:33.235Z,119.47
2019-01-25T13:14:02.039Z,131.77
2019-01-25T13:16:30.822Z,119.00
2019-01-25T13:18:59.747Z,132.23
2019-01-25T13:21:28.538Z,121.27
2019-01-25T13:23:57.356Z,126.97
2019-01-25T13:26:26.123Z,119.67
2019-01-25T13:28:56.715Z,130.70
2019-01-25T13:31:25.689Z,129.33
2019-01-25T13:33:54.714Z,140.90
2019-01-25T13:36:24.040Z,140.00
2019-01-25T13:38:52.950Z,153.90
2019-01-25T13:41:21.899Z,140.17
2019-01-25T13:43:50.779Z,144.37
2019-01-25T13:46:19.729Z,140.30
2019-01-25T13:48:48.681Z,148.03
2019-01-25T13:51:17.532Z,149.77
2019-01-25T13:53:46.482Z,143.85
2019-01-25T13:56:15.288Z,159.87
2019-01-25T13:58:44.263Z,170.22
2019-01-25T14:01:13.869Z,153.97
2019-01-25T14:03:42.842Z,159.63
2019-01-25T14:06:12.413Z,167.47
2019-01-25T14:08:41.271Z,149.90
2019-01-25T14:11:10.110Z,154.60
2019-01-25T14:13:46.677Z,150.78
2019-01-25T14:16:11.638Z,154.27
2019-01-25T14:18:44.777Z,148.23
2019-01-25T14:21:11.099Z,144.43
2019-01-25T14:23:42.233Z,161.43
2019-01-25T14:26:11.155Z,160.70
2019-01-25T14:28:42.007Z,167.57
2019-01-25T14:31:10.834Z,170.63
2019-01-25T14:33:39.962Z,150.60
2019-01-25T14:36:08.783Z,146.70
2019-01-25T14:38:37.597Z,150.73
2019-01-25T14:41:06.459Z,140.93
2019-01-25T14:43:35.363Z,141.17
2019-01-25T14:46:04.548Z,150.17
2019-01-25T14:48:38.069Z,139.37
2019-01-25T14:51:03.979Z,144.33
2019-01-25T14:53:32.897Z,134.20
2019-01-25T14:56:04.324Z,141.00
2019-01-25T14:58:33.180Z,141.60
2019-01-25T15:01:01.979Z,137.63
2019-01-25T15:03:31.466Z,126.70
2019-01-25T15:06:01.034Z,130.57
2019-01-25T15:08:29.867Z,130.77
2019-01-25T15:10:58.796Z,121.73
2019-01-25T15:13:28.410Z,119.00
2019-01-25T15:15:57.226Z,126.03
2019-01-25T15:18:26.253Z,120.60
2019-01-25T15:20:55.123Z,113.17
2019-01-25T15:23:24.157Z,120.13
2019-01-25T15:25:52.973Z,111.63
2019-01-25T15:28:22.002Z,102.90
2019-01-25T15:30:50.922Z,100.00
2019-01-25T15:33:20.168Z,95.00
2019-01-25T15:35:49.557Z,80.73
2019-01-25T15:38:18.355Z,88.67
2019-01-25T15:40:47.190Z,83.00
2019-01-25T15:43:16.021Z,81.23
2019-01-25T15:45:44.872Z,74.33
2019-01-25T15:48:14.424Z,71.70
2019-01-25T15:50:43.984Z,71.00
2019-01-25T15:53:12.818Z,71.33
2019-01-25T15:55:41.616Z,62.03
2019-01-25T15:58:10.629Z,68.80
2019-01-25T16:00:39.520Z,66.03
2019-01-25T16:03:09.551Z,69.30
2019-01-25T16:05:40.430Z,65.67
2019-01-25T16:08:09.958Z,59.50
2019-01-25T16:10:38.865Z,65.73
2019-01-25T16:13:08.016Z,66.47
2019-01-25T16:15:36.970Z,59.33
2019-01-25T16:18:05.851Z,57.73
2019-01-25T16:20:34.925Z,60.20
2019-01-25T16:23:03.814Z,56.00
2019-01-25T16:25:35.657Z,55.80
2019-01-25T16:28:05.156Z,49.27
2019-01-25T16:30:35.353Z,53.70
2019-01-25T16:33:04.462Z,49.93
2019-01-25T16:35:33.613Z,52.93
2019-01-25T16:38:02.979Z,51.13
2019-01-25T16:40:31.889Z,46.73
2019-01-25T16:43:00.655Z,44.73
2019-01-25T16:45:31.055Z,45.77
2019-01-25T16:48:00.219Z,43.03
2019-01-25T16:50:29.310Z,45.67
2019-01-25T16:52:58.917Z,43.90
2019-01-25T16:55:27.736Z,45.30
2019-01-25T16:57:56.650Z,41.93
2019-01-25T17:00:29.797Z,45.80
2019-01-25T17:02:58.654Z,44.97
2019-01-25T17:05:27.507Z,41.37
2019-01-25T17:07:56.375Z,42.70
2019-01-25T17:10:25.235Z,41.20
2019-01-25T17:12:54.365Z,38.30
2019-01-25T17:15:23.475Z,40.70
2019-01-25T17:17:52.352Z,42.47
2019-01-25T17:20:21.713Z,43.37
2019-01-25T17:22:51.147Z,42.07
2019-01-25T17:25:20.218Z,40.07
2019-01-25T17:27:50.046Z,42.33
2019-01-25T17:30:20.371Z,46.30
2019-01-25T17:32:51.662Z,36.57
2019-01-25T17:35:20.488Z,38.80
2019-01-25T17:37:49.327Z,37.70
2019-01-25T17:40:18.558Z,34.10
2019-01-25T17:42:53.721Z,35.53
2019-01-25T17:45:22.519Z,35.97
2019-01-25T17:47:51.876Z,34.77
2019-01-25T17:50:21.712Z,33.37
2019-01-25T17:52:50.660Z,35.37
2019-01-25T17:55:21.840Z,37.33
2019-01-25T17:57:50.789Z,37.30
2019-01-25T18:00:26.264Z,37.60
2019-01-25T18:02:55.395Z,34.63
2019-01-25T18:05:24.948Z,32.97
2019-01-25T18:07:54.118Z,34.33
2019-01-25T18:10:23.169Z,31.97
2019-01-25T18:12:53.277Z,35.83
2019-01-25T18:15:22.320Z,31.87
2019-01-25T18:17:51.364Z,33.10
2019-01-25T18:20:20.638Z,31.53
2019-01-25T18:22:49.669Z,32.33
2019-01-25T18:25:23.518Z,31.97
2019-01-25T18:27:54.421Z,28.00
2019-01-25T18:30:35.777Z,28.10
2019-01-25T18:33:04.599Z,29.33
2019-01-25T18:35:33.583Z,26.97
2019-01-25T18:38:02.497Z,27.40
2019-01-25T18:40:32.161Z,27.53
2019-01-25T18:43:01.120Z,26.83
2019-01-25T18:45:30.157Z,26.13
2019-01-25T18:47:59.000Z,28.37
2019-01-25T18:50:28.356Z,29.07
2019-01-25T18:52:57.326Z,28.50
2019-01-25T18:55:26.962Z,29.53
2019-01-25T18:57:56.115Z,29.23
2019-01-25T19:00:26.137Z,27.40
2019-01-25T19:02:55.725Z,29.83
2019-01-25T19:05:25.170Z,25.73
2019-01-25T19:07:54.051Z,28.40
2019-01-25T19:10:23.864Z,30.57
2019-01-25T19:12:53.181Z,27.83
2019-01-25T19:15:23.684Z,29.77
2019-01-25T19:17:53.165Z,27.67
2019-01-25T19:20:22.189Z,29.90
2019-01-25T19:22:52.488Z,26.67
2019-01-25T19:25:21.747Z,23.87
2019-01-25T19:27:52.395Z,31.33
2019-01-25T19:30:23.220Z,25.77
2019-01-25T19:32:53.812Z,27.03
2019-01-25T19:35:22.767Z,30.03
2019-01-25T19:37:51.687Z,30.17
2019-01-25T19:40:22.127Z,28.30
2019-01-25T19:42:51.070Z,29.13
2019-01-25T19:45:21.070Z,30.43
2019-01-25T19:47:50.333Z,30.50
2019-01-25T19:50:19.984Z,30.47
2019-01-25T19:52:50.653Z,29.27
2019-01-25T19:55:20.703Z,33.47
2019-01-25T19:57:49.751Z,31.83
2019-01-25T20:00:21.393Z,33.87
2019-01-25T20:02:50.391Z,29.33
2019-01-25T20:05:20.042Z,35.87
2019-01-25T20:07:49.261Z,31.50
2019-01-25T20:10:19.797Z,29.60
2019-01-25T20:12:51.142Z,25.33
2019-01-25T20:15:20.588Z,28.53
2019-01-25T20:17:50.062Z,24.73
2019-01-25T20:20:20.891Z,27.87
2019-01-25T20:22:50.411Z,26.60
2019-01-25T20:25:19.386Z,27.10
2019-01-25T20:27:48.477Z,23.83
2019-01-25T20:30:37.993Z,27.70
2019-01-25T20:33:06.878Z,28.27
2019-01-25T20:35:37.067Z,25.77
2019-01-25T20:38:06.112Z,26.27
2019-01-25T20:40:35.750Z,23.67
2019-01-25T20:43:04.849Z,24.63
2019-01-25T20:45:34.714Z,24.77
2019-01-25T20:48:04.482Z,24.67
2019-01-25T20:50:33.919Z,24.47
2019-01-25T20:53:03.190Z,21.10
2019-01-25T20:55:34.546Z,24.50
2019-01-25T20:58:03.637Z,20.87
2019-01-25T21:00:33.557Z,19.03
2019-01-25T21:03:03.769Z,20.87
2019-01-25T21:05:32.737Z,22.30
2019-01-25T21:08:01.849Z,19.03
2019-01-25T21:10:31.050Z,17.23
2019-01-25T21:13:00.342Z,18.67
2019-01-25T21:15:35.018Z,17.90
2019-01-25T21:18:00.220Z,17.07
2019-01-25T21:20:30.598Z,16.47
2019-01-25T21:22:59.624Z,16.47
2019-01-25T21:25:28.965Z,17.47
2019-01-25T21:27:57.867Z,18.60
2019-01-25T21:30:27.901Z,18.87
2019-01-25T21:32:56.843Z,17.70
2019-01-25T21:35:28.294Z,17.43
2019-01-25T21:37:57.542Z,17.73
2019-01-25T21:40:27.548Z,15.67
2019-01-25T21:42:58.148Z,14.40
2019-01-25T21:45:28.387Z,18.37
2019-01-25T21:47:57.497Z,16.13
2019-01-25T21:50:27.605Z,18.30
2019-01-25T21:52:56.715Z,15.73
2019-01-25T21:55:26.313Z,14.77
2019-01-25T21:57:55.178Z,16.23
2019-01-25T22:00:25.724Z,16.23
2019-01-25T22:02:54.579Z,16.67
2019-01-25T22:05:23.545Z,15.53
2019-01-25T22:07:52.488Z,14.33
2019-01-25T22:10:24.422Z,14.33
2019-01-25T22:12:54.212Z,14.43
2019-01-25T22:15:23.299Z,13.22
2019-01-25T22:17:52.226Z,13.97
2019-01-25T22:20:22.332Z,14.90
2019-01-25T22:22:51.242Z,14.03
2019-01-25T22:25:20.238Z,14.03
2019-01-25T22:27:50.048Z,15.40
2019-01-25T22:30:19.714Z,17.50
2019-01-25T22:32:48.853Z,13.77
2019-01-25T22:35:18.116Z,13.53
2019-01-25T22:37:46.983Z,14.13
2019-01-25T22:40:17.286Z,15.33
2019-01-25T22:42:46.323Z,15.63
2019-01-25T22:45:32.844Z,14.00
2019-01-25T22:48:02.559Z,13.47
2019-01-25T22:50:32.740Z,13.43
2019-01-25T22:53:02.132Z,13.17
2019-01-25T22:55:31.045Z,12.23
2019-01-25T22:58:17.325Z,13.93
2019-01-25T23:01:08.071Z,15.73
2019-01-25T23:03:38.878Z,14.50
2019-01-25T23:06:26.901Z,13.33
2019-01-25T23:08:56.128Z,15.97
2019-01-25T23:11:25.324Z,16.60
2019-01-25T23:13:54.295Z,16.20
2019-01-25T23:16:23.120Z,16.50
2019-01-25T23:18:51.925Z,16.37
2019-01-25T23:21:23.086Z,16.93
2019-01-25T23:23:51.952Z,17.57
2019-01-25T23:26:21.033Z,15.80
2019-01-25T23:28:49.947Z,17.07
2019-01-25T23:31:19.018Z,16.50
2019-01-25T23:33:48.118Z,16.90
2019-01-25T23:36:17.254Z,15.97
2019-01-25T23:38:46.841Z,15.13
2019-01-25T23:41:16.822Z,15.67
2019-01-25T23:43:47.415Z,18.33
2019-01-25T23:46:18.457Z,15.03
2019-01-25T23:48:48.113Z,16.90
2019-01-25T23:51:22.946Z,15.97
2019-01-25T23:53:47.623Z,17.60
2019-01-25T23:56:16.481Z,14.77
2019-01-25T23:58:45.438Z,15.53
